Lakeside, Colorado
Current Conditions -  °F | °C
As of 10:47 AM on Saturday 20 Dec 2014 (Local Time) from KBJC Reporting Station
Broken Clouds Broken Clouds  
Wind Chill: 34°   Ceiling: 12000
Heat Index: 37°   Visibility: 50mi
Dew Point: 18°   Wind: 5mph
Humidity: 45%   Direction: NA
Pressure: 30.02"   Gusts: NA
Location:  39.775°N, 105.049°W
Report Text: KBJC 201747Z VRB04KT 50SM SCT080 BKN120 BKN200 03/M08 A3002
Loading
Personal Weather Stations






























Interactive Weather Map New forecast layout! Learn more

10-Day Weather Forecast

Advertisements
Track Severe Weather on mobile